createdAt,value
2018-02-19T00:00:58.094Z,1021.33
2018-02-19T00:01:57.966Z,1021.32
2018-02-19T00:02:57.939Z,1021.34
2018-02-19T00:03:57.918Z,1021.33
2018-02-19T00:04:58.025Z,1021.34
2018-02-19T00:05:57.878Z,1021.28
2018-02-19T00:06:57.861Z,1021.29
2018-02-19T00:07:57.838Z,1021.23
2018-02-19T00:08:57.814Z,1021.24
2018-02-19T00:09:57.791Z,1021.20
2018-02-19T00:10:57.773Z,1021.17
2018-02-19T00:11:57.746Z,1021.14
2018-02-19T00:12:57.869Z,1021.11
2018-02-19T00:13:57.703Z,1021.13
2018-02-19T00:14:57.683Z,1021.10
2018-02-19T00:15:57.659Z,1021.14
2018-02-19T00:16:57.646Z,1021.17
2018-02-19T00:17:57.624Z,1021.16
2018-02-19T00:18:57.620Z,1021.13
2018-02-19T00:19:57.577Z,1021.10
2018-02-19T00:20:57.554Z,1021.09
2018-02-19T00:21:57.532Z,1021.08
2018-02-19T00:22:57.512Z,1021.09
2018-02-19T00:23:57.495Z,1021.08
2018-02-19T00:24:57.482Z,1021.10
2018-02-19T00:25:57.451Z,1021.10
2018-02-19T00:26:57.424Z,1021.09
2018-02-19T00:27:57.404Z,1021.11
2018-02-19T00:28:57.380Z,1021.04
2018-02-19T00:29:57.372Z,1021.03
2018-02-19T00:30:57.337Z,1021.01
2018-02-19T00:31:57.313Z,1021.00
2018-02-19T00:32:57.297Z,1021.00
2018-02-19T00:33:57.273Z,1021.04
2018-02-19T00:34:57.252Z,1021.02
2018-02-19T00:35:57.228Z,1020.98
2018-02-19T00:36:57.209Z,1020.98
2018-02-19T00:37:57.188Z,1020.92
2018-02-19T00:38:57.221Z,1020.91
2018-02-19T00:39:57.145Z,1020.96
2018-02-19T00:40:57.121Z,1020.92
2018-02-19T00:41:57.101Z,1020.93
2018-02-19T00:42:57.082Z,1020.94
2018-02-19T00:43:57.061Z,1020.94
2018-02-19T00:44:57.034Z,1020.94
2018-02-19T00:45:57.015Z,1020.88
2018-02-19T00:46:56.994Z,1020.91
2018-02-19T00:47:56.970Z,1020.90
2018-02-19T00:48:57.008Z,1020.91
2018-02-19T00:49:56.934Z,1020.88
2018-02-19T00:50:56.918Z,1020.90
2018-02-19T00:51:56.889Z,1020.87
2018-02-19T00:52:56.863Z,1020.87
2018-02-19T00:53:56.841Z,1020.85
2018-02-19T00:54:56.825Z,1020.86
2018-02-19T00:55:56.801Z,1020.89
2018-02-19T00:56:56.774Z,1020.84
2018-02-19T00:57:56.751Z,1020.89
2018-02-19T00:58:56.733Z,1020.88
2018-02-19T00:59:56.713Z,1020.86
2018-02-19T01:00:56.688Z,1020.87
2018-02-19T01:01:56.663Z,1020.85
2018-02-19T01:02:56.652Z,1020.86
2018-02-19T01:03:56.621Z,1020.85
2018-02-19T01:04:56.600Z,1020.85
2018-02-19T01:05:56.578Z,1020.88
2018-02-19T01:06:56.564Z,1020.87
2018-02-19T01:07:56.535Z,1020.84
2018-02-19T01:08:56.520Z,1020.83
2018-02-19T01:09:56.496Z,1020.84
2018-02-19T01:10:56.473Z,1020.84
2018-02-19T01:11:56.449Z,1020.83
2018-02-19T01:12:56.430Z,1020.83
2018-02-19T01:13:56.407Z,1020.87
2018-02-19T01:14:56.387Z,1020.81
2018-02-19T01:15:56.362Z,1020.83
2018-02-19T01:16:56.343Z,1020.80
2018-02-19T01:17:56.322Z,1020.76
2018-02-19T01:18:56.300Z,1020.78
2018-02-19T01:19:56.273Z,1020.78
2018-02-19T01:20:56.255Z,1020.74
2018-02-19T01:21:56.235Z,1020.74
2018-02-19T01:22:56.212Z,1020.77
2018-02-19T01:23:56.190Z,1020.72
2018-02-19T01:24:56.166Z,1020.66
2018-02-19T01:25:56.155Z,1020.66
2018-02-19T01:26:56.133Z,1020.71
2018-02-19T01:27:56.104Z,1020.62
2018-02-19T01:28:56.080Z,1020.68
2018-02-19T01:29:56.064Z,1020.65
2018-02-19T01:30:56.038Z,1020.59
2018-02-19T01:31:56.022Z,1020.61
2018-02-19T01:32:55.995Z,1020.66
2018-02-19T01:33:55.973Z,1020.65
2018-02-19T01:34:55.950Z,1020.59
2018-02-19T01:35:55.934Z,1020.59
2018-02-19T01:36:55.912Z,1020.60
2018-02-19T01:37:55.886Z,1020.58
2018-02-19T01:38:55.863Z,1020.55
2018-02-19T01:39:55.840Z,1020.52
2018-02-19T01:40:55.821Z,1020.57
2018-02-19T01:41:55.800Z,1020.58
2018-02-19T01:42:55.781Z,1020.59
2018-02-19T01:43:55.803Z,1020.56
2018-02-19T01:44:55.733Z,1020.52
2018-02-19T01:45:55.712Z,1020.49
2018-02-19T01:46:55.693Z,1020.52
2018-02-19T01:47:55.679Z,1020.46
2018-02-19T01:48:55.892Z,1020.43
2018-02-19T01:49:55.681Z,1020.41
2018-02-19T01:50:55.601Z,1020.38
2018-02-19T01:51:55.632Z,1020.37
2018-02-19T01:52:55.559Z,1020.34
2018-02-19T01:53:55.641Z,1020.33
2018-02-19T01:54:55.521Z,1020.31
2018-02-19T01:55:55.494Z,1020.31
2018-02-19T01:56:55.473Z,1020.24
2018-02-19T01:57:55.450Z,1020.27
2018-02-19T01:58:55.425Z,1020.22
2018-02-19T01:59:55.607Z,1020.21
2018-02-19T02:00:55.385Z,1020.18
2018-02-19T02:01:55.361Z,1020.17
2018-02-19T02:02:55.342Z,1020.15
2018-02-19T02:03:55.316Z,1020.17
2018-02-19T02:04:55.300Z,1020.13
2018-02-19T02:05:55.275Z,1020.13
2018-02-19T02:06:55.252Z,1020.13
2018-02-19T02:07:55.231Z,1020.11
2018-02-19T02:08:55.211Z,1020.08
2018-02-19T02:09:55.190Z,1020.08
2018-02-19T02:10:55.173Z,1020.04
2018-02-19T02:11:55.149Z,1019.98
2018-02-19T02:12:55.122Z,1019.98
2018-02-19T02:13:55.101Z,1019.94
2018-02-19T02:14:55.078Z,1019.92
2018-02-19T02:15:55.060Z,1019.91
2018-02-19T02:16:55.041Z,1019.93
2018-02-19T02:17:55.012Z,1019.91
2018-02-19T02:18:55.246Z,1019.90
2018-02-19T02:19:54.972Z,1019.87
2018-02-19T02:20:54.949Z,1019.87
2018-02-19T02:21:54.926Z,1019.86
2018-02-19T02:22:54.910Z,1019.87
2018-02-19T02:23:54.882Z,1019.85
2018-02-19T02:24:54.862Z,1019.85
2018-02-19T02:25:54.838Z,1019.82
2018-02-19T02:26:54.815Z,1019.80
2018-02-19T02:27:54.796Z,1019.82
2018-02-19T02:28:54.776Z,1019.78
2018-02-19T02:29:54.752Z,1019.80
2018-02-19T02:30:54.734Z,1019.76
2018-02-19T02:31:54.713Z,1019.73
2018-02-19T02:32:54.690Z,1019.75
2018-02-19T02:33:54.668Z,1019.70
2018-02-19T02:34:54.647Z,1019.79
2018-02-19T02:35:54.621Z,1019.77
2018-02-19T02:36:54.599Z,1019.76
2018-02-19T02:37:54.585Z,1019.73
2018-02-19T02:38:54.560Z,1019.73
2018-02-19T02:39:54.787Z,1019.77
2018-02-19T02:40:54.515Z,1019.75
2018-02-19T02:41:54.493Z,1019.73
2018-02-19T02:42:54.472Z,1019.75
2018-02-19T02:43:54.447Z,1019.74
2018-02-19T02:44:54.425Z,1019.74
2018-02-19T02:45:54.402Z,1019.77
2018-02-19T02:46:54.379Z,1019.74
2018-02-19T02:47:54.361Z,1019.77
2018-02-19T02:48:54.338Z,1019.72
2018-02-19T02:49:54.567Z,1019.73
2018-02-19T02:50:54.299Z,1019.67
2018-02-19T02:51:54.280Z,1019.69
2018-02-19T02:52:54.252Z,1019.68
2018-02-19T02:53:54.227Z,1019.71
2018-02-19T02:54:54.212Z,1019.66
2018-02-19T02:55:54.182Z,1019.64
2018-02-19T02:56:54.162Z,1019.67
2018-02-19T02:57:54.139Z,1019.61
2018-02-19T02:58:54.120Z,1019.65
2018-02-19T02:59:54.098Z,1019.62
2018-02-19T03:00:54.077Z,1019.56
2018-02-19T03:01:54.053Z,1019.62
2018-02-19T03:02:54.033Z,1019.59
2018-02-19T03:03:54.013Z,1019.61
2018-02-19T03:04:53.989Z,1019.55
2018-02-19T03:05:53.964Z,1019.53
2018-02-19T03:06:53.944Z,1019.53
2018-02-19T03:07:53.920Z,1019.49
2018-02-19T03:08:53.900Z,1019.49
2018-02-19T03:09:53.876Z,1019.51
2018-02-19T03:10:53.858Z,1019.49
2018-02-19T03:11:53.841Z,1019.54
2018-02-19T03:12:53.812Z,1019.52
2018-02-19T03:13:53.793Z,1019.51
2018-02-19T03:14:53.772Z,1019.47
2018-02-19T03:15:53.750Z,1019.48
2018-02-19T03:16:53.727Z,1019.48
2018-02-19T03:17:53.704Z,1019.46
2018-02-19T03:18:53.683Z,1019.47
2018-02-19T03:19:53.663Z,1019.44
2018-02-19T03:20:53.640Z,1019.41
2018-02-19T03:21:53.616Z,1019.44
2018-02-19T03:22:53.597Z,1019.37
2018-02-19T03:23:53.572Z,1019.34
2018-02-19T03:24:53.552Z,1019.39
2018-02-19T03:25:53.782Z,1019.38
2018-02-19T03:26:53.509Z,1019.34
2018-02-19T03:27:53.488Z,1019.35
2018-02-19T03:28:53.463Z,1019.37
2018-02-19T03:29:53.442Z,1019.35
2018-02-19T03:30:53.426Z,1019.33
2018-02-19T03:31:53.399Z,1019.32
2018-02-19T03:32:53.378Z,1019.31
2018-02-19T03:33:53.354Z,1019.31
2018-02-19T03:34:53.333Z,1019.25
2018-02-19T03:35:53.314Z,1019.25
2018-02-19T03:36:53.290Z,1019.24
2018-02-19T03:37:53.267Z,1019.20
2018-02-19T03:38:53.245Z,1019.20
2018-02-19T03:39:53.223Z,1019.18
2018-02-19T03:40:53.202Z,1019.17
2018-02-19T03:41:53.180Z,1019.13
2018-02-19T03:42:53.154Z,1019.13
2018-02-19T03:43:53.133Z,1019.08
2018-02-19T03:44:53.115Z,1019.06
2018-02-19T03:45:53.343Z,1019.10
2018-02-19T03:46:53.069Z,1019.09
2018-02-19T03:47:53.054Z,1019.09
2018-02-19T03:48:53.022Z,1019.11
2018-02-19T03:49:53.002Z,1019.12
2018-02-19T03:50:52.983Z,1019.14
2018-02-19T03:51:52.962Z,1019.10
2018-02-19T03:52:52.938Z,1019.10
2018-02-19T03:53:52.914Z,1019.09
2018-02-19T03:54:53.906Z,1019.09
2018-02-19T03:55:52.872Z,1019.07
2018-02-19T03:56:52.852Z,1019.09
2018-02-19T03:57:52.833Z,1019.13
2018-02-19T03:58:52.810Z,1019.12
2018-02-19T03:59:52.784Z,1019.08
2018-02-19T04:00:52.765Z,1019.10
2018-02-19T04:01:52.743Z,1019.09
2018-02-19T04:02:52.718Z,1019.08
2018-02-19T04:03:52.703Z,1019.09
2018-02-19T04:04:52.672Z,1019.09
2018-02-19T04:05:52.657Z,1019.09
2018-02-19T04:06:52.634Z,1019.11
2018-02-19T04:07:52.607Z,1019.10
2018-02-19T04:08:52.586Z,1019.08
2018-02-19T04:09:52.563Z,1019.06
2018-02-19T04:10:52.542Z,1019.08
2018-02-19T04:11:52.775Z,1019.05
2018-02-19T04:12:52.503Z,1019.06
2018-02-19T04:13:52.480Z,1019.04
2018-02-19T04:14:53.158Z,1019.03
2018-02-19T04:15:52.433Z,1019.00
2018-02-19T04:16:52.464Z,1019.02
2018-02-19T04:17:52.393Z,1019.00
2018-02-19T04:18:52.370Z,1019.00
2018-02-19T04:19:52.346Z,1019.01
2018-02-19T04:20:52.375Z,1019.03
2018-02-19T04:21:52.552Z,1019.02
2018-02-19T04:22:52.349Z,1018.97
2018-02-19T04:23:52.258Z,1018.99
2018-02-19T04:24:52.249Z,1018.99
2018-02-19T04:25:52.214Z,1018.92
2018-02-19T04:26:52.333Z,1018.94
2018-02-19T04:27:52.173Z,1018.92
2018-02-19T04:28:52.168Z,1018.91
2018-02-19T04:29:52.125Z,1018.89
2018-02-19T04:30:52.412Z,1018.85
2018-02-19T04:31:52.086Z,1018.88
2018-02-19T04:32:52.138Z,1018.84
2018-02-19T04:33:52.042Z,1018.81
2018-02-19T04:34:52.116Z,1018.78
2018-02-19T04:35:51.996Z,1018.75
2018-02-19T04:36:52.723Z,1018.76
2018-02-19T04:37:51.949Z,1018.73
2018-02-19T04:38:51.929Z,1018.71
2018-02-19T04:39:51.905Z,1018.75
2018-02-19T04:40:52.006Z,1018.76
2018-02-19T04:41:51.864Z,1018.76
2018-02-19T04:43:51.814Z,1018.72
2018-02-19T04:44:51.795Z,1018.69
2018-02-19T04:45:51.774Z,1018.71
2018-02-19T04:46:51.755Z,1018.70
2018-02-19T04:47:51.726Z,1018.69
2018-02-19T04:48:51.705Z,1018.68
2018-02-19T04:49:51.684Z,1018.71
2018-02-19T04:50:51.661Z,1018.72
2018-02-19T04:51:51.638Z,1018.70
2018-02-19T04:52:51.625Z,1018.71
2018-02-19T04:53:51.600Z,1018.70
2018-02-19T04:54:51.574Z,1018.66
2018-02-19T04:55:51.552Z,1018.69
2018-02-19T04:56:51.535Z,1018.72
2018-02-19T04:57:51.504Z,1018.72
2018-02-19T04:58:51.483Z,1018.70
2018-02-19T04:59:51.465Z,1018.67
2018-02-19T05:00:51.441Z,1018.66
2018-02-19T05:01:51.416Z,1018.69
2018-02-19T05:02:51.450Z,1018.66
2018-02-19T05:03:51.378Z,1018.69
2018-02-19T05:04:51.354Z,1018.67
2018-02-19T05:05:51.329Z,1018.66
2018-02-19T05:06:51.312Z,1018.66
2018-02-19T05:07:51.285Z,1018.65
2018-02-19T05:08:51.264Z,1018.65
2018-02-19T05:09:51.244Z,1018.59
2018-02-19T05:10:51.222Z,1018.61
2018-02-19T05:11:51.196Z,1018.58
2018-02-19T05:12:51.174Z,1018.54
2018-02-19T05:13:51.159Z,1018.54
2018-02-19T05:14:51.288Z,1018.54
2018-02-19T05:15:51.107Z,1018.53
2018-02-19T05:16:51.123Z,1018.51
2018-02-19T05:17:51.311Z,1018.55
2018-02-19T05:18:51.083Z,1018.51
2018-02-19T05:19:51.018Z,1018.49
2018-02-19T05:20:50.995Z,1018.55
2018-02-19T05:21:50.973Z,1018.53
2018-02-19T05:22:50.966Z,1018.53
2018-02-19T05:23:50.933Z,1018.55
2018-02-19T05:24:50.908Z,1018.54
2018-02-19T05:25:50.886Z,1018.53
2018-02-19T05:26:50.863Z,1018.53
2018-02-19T05:27:50.843Z,1018.52
2018-02-19T05:28:50.819Z,1018.54
2018-02-19T05:29:50.795Z,1018.52
2018-02-19T05:30:50.775Z,1018.49
2018-02-19T05:31:50.749Z,1018.51
2018-02-19T05:32:50.734Z,1018.52
2018-02-19T05:33:50.705Z,1018.55
2018-02-19T05:34:50.685Z,1018.53
2018-02-19T05:35:50.663Z,1018.54
2018-02-19T05:36:50.642Z,1018.51
2018-02-19T05:37:50.620Z,1018.52
2018-02-19T05:38:50.595Z,1018.55
2018-02-19T05:39:50.572Z,1018.49
2018-02-19T05:40:50.556Z,1018.52
2018-02-19T05:41:50.530Z,1018.49
2018-02-19T05:42:50.820Z,1018.45
2018-02-19T05:43:50.502Z,1018.45
2018-02-19T05:44:50.462Z,1018.47
2018-02-19T05:45:50.445Z,1018.46
2018-02-19T05:46:50.414Z,1018.48
2018-02-19T05:47:50.392Z,1018.43
2018-02-19T05:48:50.368Z,1018.44
2018-02-19T05:49:50.349Z,1018.48
2018-02-19T05:50:50.329Z,1018.48
2018-02-19T05:51:50.304Z,1018.47
2018-02-19T05:52:50.280Z,1018.45
2018-02-19T05:53:50.363Z,1018.50
2018-02-19T05:54:50.239Z,1018.47
2018-02-19T05:55:50.270Z,1018.48
2018-02-19T05:56:50.194Z,1018.54
2018-02-19T05:57:50.170Z,1018.50
2018-02-19T05:58:50.145Z,1018.51
2018-02-19T05:59:50.175Z,1018.52
2018-02-19T06:00:50.111Z,1018.56
2018-02-19T06:01:50.084Z,1018.57
2018-02-19T06:02:50.059Z,1018.58
2018-02-19T06:03:50.336Z,1018.59
2018-02-19T06:04:50.013Z,1018.61
2018-02-19T06:05:50.049Z,1018.61
2018-02-19T06:06:49.966Z,1018.61
2018-02-19T06:07:50.044Z,1018.61
2018-02-19T06:08:49.932Z,1018.61
2018-02-19T06:09:50.148Z,1018.62
2018-02-19T06:10:49.877Z,1018.60
2018-02-19T06:11:49.958Z,1018.59
2018-02-19T06:12:49.833Z,1018.60
2018-02-19T06:13:49.894Z,1018.57
2018-02-19T06:14:49.790Z,1018.55
2018-02-19T06:15:49.920Z,1018.54
2018-02-19T06:16:49.743Z,1018.62
2018-02-19T06:17:49.796Z,1018.55
2018-02-19T06:18:49.700Z,1018.56
2018-02-19T06:19:49.677Z,1018.52
2018-02-19T06:20:49.653Z,1018.55
2018-02-19T06:21:49.635Z,1018.55
2018-02-19T06:22:49.608Z,1018.49
2018-02-19T06:23:49.625Z,1018.47
2018-02-19T06:24:49.564Z,1018.47
2018-02-19T06:25:49.628Z,1018.43
2018-02-19T06:26:49.519Z,1018.43
2018-02-19T06:27:49.496Z,1018.45
2018-02-19T06:28:49.471Z,1018.44
2018-02-19T06:29:49.549Z,1018.45
2018-02-19T06:30:49.684Z,1018.44
2018-02-19T06:31:49.409Z,1018.43
2018-02-19T06:32:49.388Z,1018.37
2018-02-19T06:33:49.461Z,1018.38
2018-02-19T06:34:49.342Z,1018.37
2018-02-19T06:35:49.377Z,1018.40
2018-02-19T06:36:49.300Z,1018.42
2018-02-19T06:37:49.281Z,1018.44
2018-02-19T06:38:49.253Z,1018.43
2018-02-19T06:39:49.233Z,1018.45
2018-02-19T06:40:49.207Z,1018.44
2018-02-19T06:41:49.181Z,1018.45
2018-02-19T06:42:49.165Z,1018.46
2018-02-19T06:43:49.140Z,1018.44
2018-02-19T06:44:49.138Z,1018.47
2018-02-19T06:45:49.092Z,1018.50
2018-02-19T06:46:49.070Z,1018.47
2018-02-19T06:47:49.052Z,1018.48
2018-02-19T06:48:49.025Z,1018.49
2018-02-19T06:49:49.008Z,1018.52
2018-02-19T06:50:48.980Z,1018.53
2018-02-19T06:51:48.956Z,1018.51
2018-02-19T06:52:48.939Z,1018.53
2018-02-19T06:53:48.915Z,1018.53
2018-02-19T06:54:48.911Z,1018.53
2018-02-19T06:55:48.875Z,1018.54
2018-02-19T06:56:48.846Z,1018.55
2018-02-19T06:57:48.826Z,1018.54
2018-02-19T06:58:48.803Z,1018.54
2018-02-19T06:59:48.778Z,1018.55
2018-02-19T07:00:48.759Z,1018.52
2018-02-19T07:01:48.740Z,1018.55
2018-02-19T07:02:48.716Z,1018.56
2018-02-19T07:03:48.695Z,1018.60
2018-02-19T07:04:48.671Z,1018.55
2018-02-19T07:05:48.648Z,1018.57
2018-02-19T07:06:48.626Z,1018.59
2018-02-19T07:07:48.601Z,1018.59
2018-02-19T07:08:48.587Z,1018.58
2018-02-19T07:09:48.563Z,1018.63
2018-02-19T07:10:48.537Z,1018.63
2018-02-19T07:11:48.515Z,1018.61
2018-02-19T07:12:48.495Z,1018.60
2018-02-19T07:13:48.470Z,1018.61
2018-02-19T07:14:48.446Z,1018.59
2018-02-19T07:15:48.426Z,1018.63
2018-02-19T07:16:48.540Z,1018.61
2018-02-19T07:17:48.386Z,1018.58
2018-02-19T07:18:48.361Z,1018.63
2018-02-19T07:19:48.342Z,1018.66
2018-02-19T07:20:48.315Z,1018.67
2018-02-19T07:21:48.296Z,1018.64
2018-02-19T07:22:48.274Z,1018.63
2018-02-19T07:23:48.252Z,1018.67
2018-02-19T07:24:48.228Z,1018.65
2018-02-19T07:25:48.219Z,1018.64
2018-02-19T07:26:48.184Z,1018.64
2018-02-19T07:27:48.161Z,1018.66
2018-02-19T07:28:48.142Z,1018.66
2018-02-19T07:29:48.116Z,1018.68
2018-02-19T07:30:48.094Z,1018.66
2018-02-19T07:31:48.079Z,1018.66
2018-02-19T07:32:48.050Z,1018.67
2018-02-19T07:33:48.058Z,1018.67
2018-02-19T07:34:48.007Z,1018.64
2018-02-19T07:35:48.019Z,1018.65
2018-02-19T07:36:48.016Z,1018.62
2018-02-19T07:37:47.956Z,1018.65
2018-02-19T07:38:47.921Z,1018.57
2018-02-19T07:39:47.898Z,1018.59
2018-02-19T07:40:47.881Z,1018.56
2018-02-19T07:41:47.854Z,1018.56
2018-02-19T07:42:47.834Z,1018.56
2018-02-19T07:43:47.823Z,1018.57
2018-02-19T07:44:47.845Z,1018.58
2018-02-19T07:45:47.767Z,1018.51
2018-02-19T07:46:47.746Z,1018.53
2018-02-19T07:47:47.726Z,1018.58
2018-02-19T07:48:47.716Z,1018.56
2018-02-19T07:49:47.685Z,1018.53
2018-02-19T07:50:47.665Z,1018.56
2018-02-19T07:51:47.641Z,1018.59
2018-02-19T07:52:47.671Z,1018.51
2018-02-19T07:53:47.597Z,1018.57
2018-02-19T07:54:47.625Z,1018.53
2018-02-19T07:55:47.555Z,1018.51
2018-02-19T07:56:47.530Z,1018.53
2018-02-19T07:57:47.515Z,1018.52
2018-02-19T07:58:47.490Z,1018.52
2018-02-19T07:59:47.487Z,1018.51
2018-02-19T08:00:47.446Z,1018.52
2018-02-19T08:01:47.426Z,1018.52
2018-02-19T08:02:47.411Z,1018.57
2018-02-19T08:03:47.380Z,1018.54
2018-02-19T08:04:47.359Z,1018.50
2018-02-19T08:05:47.340Z,1018.55
2018-02-19T08:06:47.316Z,1018.54
2018-02-19T08:07:47.297Z,1018.55
2018-02-19T08:08:47.279Z,1018.54
2018-02-19T08:09:47.257Z,1018.52
2018-02-19T08:10:47.231Z,1018.57
2018-02-19T08:11:47.214Z,1018.58
2018-02-19T08:12:47.194Z,1018.62
2018-02-19T08:13:47.167Z,1018.62
2018-02-19T08:14:47.146Z,1018.59
2018-02-19T08:15:47.124Z,1018.58
2018-02-19T08:16:47.100Z,1018.60
2018-02-19T08:17:47.085Z,1018.62
2018-02-19T08:18:47.062Z,1018.60
2018-02-19T08:19:47.038Z,1018.60
2018-02-19T08:20:47.019Z,1018.64
2018-02-19T08:21:46.999Z,1018.60
2018-02-19T08:22:46.978Z,1018.61
2018-02-19T08:23:46.957Z,1018.60
2018-02-19T08:24:46.939Z,1018.64
2018-02-19T08:25:46.919Z,1018.58
2018-02-19T08:26:46.895Z,1018.57
2018-02-19T08:27:46.872Z,1018.60
2018-02-19T08:28:46.855Z,1018.62
2018-02-19T08:29:46.833Z,1018.60
2018-02-19T08:30:47.214Z,1018.64
2018-02-19T08:31:46.796Z,1018.61
2018-02-19T08:32:46.768Z,1018.61
2018-02-19T08:33:46.750Z,1018.65
2018-02-19T08:34:46.723Z,1018.65
2018-02-19T08:35:46.705Z,1018.66
2018-02-19T08:36:46.685Z,1018.63
2018-02-19T08:37:46.666Z,1018.66
2018-02-19T08:38:46.646Z,1018.58
2018-02-19T08:39:46.624Z,1018.62
2018-02-19T08:40:46.602Z,1018.58
2018-02-19T08:41:46.585Z,1018.58
2018-02-19T08:42:46.563Z,1018.57
2018-02-19T08:43:46.541Z,1018.62
2018-02-19T08:44:46.524Z,1018.60
2018-02-19T08:45:46.500Z,1018.58
2018-02-19T08:46:46.488Z,1018.61
2018-02-19T08:47:46.463Z,1018.61
2018-02-19T08:48:46.445Z,1018.68
2018-02-19T08:49:46.430Z,1018.69
2018-02-19T08:50:46.405Z,1018.71
2018-02-19T08:51:46.380Z,1018.70
2018-02-19T08:52:46.364Z,1018.67
2018-02-19T08:53:46.390Z,1018.73
2018-02-19T08:54:46.471Z,1018.70
2018-02-19T08:55:46.304Z,1018.67
2018-02-19T08:56:46.283Z,1018.64
2018-02-19T08:57:46.262Z,1018.72
2018-02-19T08:58:46.252Z,1018.65
2018-02-19T08:59:46.222Z,1018.69
2018-02-19T09:00:46.210Z,1018.73
2018-02-19T09:01:46.184Z,1018.62
2018-02-19T09:02:46.178Z,1018.52
2018-02-19T09:03:46.144Z,1018.51
2018-02-19T09:04:46.134Z,1018.48
2018-02-19T09:05:46.130Z,1018.46
2018-02-19T09:06:46.229Z,1018.46
2018-02-19T09:07:46.073Z,1018.48
2018-02-19T09:08:46.050Z,1018.42
2018-02-19T09:09:46.030Z,1018.36
2018-02-19T09:10:46.016Z,1018.42
2018-02-19T09:11:46.000Z,1018.35
2018-02-19T09:12:45.976Z,1018.35
2018-02-19T09:13:45.955Z,1018.33
2018-02-19T09:14:45.937Z,1018.34
2018-02-19T09:15:45.915Z,1018.34
2018-02-19T09:16:45.896Z,1018.38
2018-02-19T09:17:45.885Z,1018.31
2018-02-19T09:18:45.860Z,1018.35
2018-02-19T09:19:45.842Z,1018.32
2018-02-19T09:20:45.822Z,1018.37
2018-02-19T09:21:45.804Z,1018.40
2018-02-19T09:22:45.804Z,1018.36
2018-02-19T09:23:45.765Z,1018.34
2018-02-19T09:24:45.745Z,1018.29
2018-02-19T09:25:45.730Z,1018.33
2018-02-19T09:26:45.710Z,1018.29
2018-02-19T09:27:45.941Z,1018.31
2018-02-19T09:28:45.673Z,1018.25
2018-02-19T09:29:45.652Z,1018.31
2018-02-19T09:30:45.633Z,1018.27
2018-02-19T09:31:45.621Z,1018.25
2018-02-19T09:32:45.598Z,1018.23
2018-02-19T09:33:45.582Z,1018.22
2018-02-19T09:34:45.562Z,1018.24
2018-02-19T09:35:45.542Z,1018.15
2018-02-19T09:36:45.526Z,1018.20
2018-02-19T09:37:45.506Z,1018.25
2018-02-19T09:38:45.490Z,1018.18
2018-02-19T09:39:45.470Z,1018.21
2018-02-19T09:40:45.456Z,1018.24
2018-02-19T09:41:45.466Z,1018.24
2018-02-19T09:42:45.416Z,1018.24
2018-02-19T09:43:45.397Z,1018.25
2018-02-19T09:44:45.384Z,1018.26
2018-02-19T09:45:45.359Z,1018.22
2018-02-19T09:46:45.350Z,1018.26
2018-02-19T09:47:45.350Z,1018.24
2018-02-19T09:48:45.308Z,1018.24
2018-02-19T09:49:45.288Z,1018.26
2018-02-19T09:50:45.269Z,1018.33
2018-02-19T09:51:45.259Z,1018.32
2018-02-19T09:52:45.233Z,1018.34
2018-02-19T09:53:45.216Z,1018.45
2018-02-19T09:54:45.201Z,1018.53
2018-02-19T09:55:45.183Z,1018.58
2018-02-19T09:56:45.163Z,1018.60
2018-02-19T09:57:45.153Z,1018.52
2018-02-19T09:58:45.131Z,1018.41
2018-02-19T09:59:45.112Z,1018.34
2018-02-19T10:00:45.092Z,1018.27
2018-02-19T10:01:45.076Z,1018.21
2018-02-19T10:02:45.060Z,1018.26
2018-02-19T10:03:45.045Z,1018.27
2018-02-19T10:04:45.029Z,1018.32
2018-02-19T10:05:45.017Z,1018.38
2018-02-19T10:06:44.996Z,1018.38
2018-02-19T10:07:44.986Z,1018.44
2018-02-19T10:08:44.959Z,1018.49
2018-02-19T10:09:44.942Z,1018.46
2018-02-19T10:10:44.928Z,1018.44
2018-02-19T10:11:44.909Z,1018.34
2018-02-19T10:12:44.894Z,1018.35
2018-02-19T10:13:44.879Z,1018.33
2018-02-19T10:14:44.866Z,1018.37
2018-02-19T10:15:44.849Z,1018.37
2018-02-19T10:16:44.835Z,1018.37
2018-02-19T10:17:44.818Z,1018.38
2018-02-19T10:18:44.814Z,1018.47
2018-02-19T10:19:44.790Z,1018.50
2018-02-19T10:20:44.772Z,1018.46
2018-02-19T10:21:44.756Z,1018.42
2018-02-19T10:22:44.745Z,1018.45
2018-02-19T10:23:44.726Z,1018.50
2018-02-19T10:24:44.713Z,1018.45
2018-02-19T10:25:44.702Z,1018.45
2018-02-19T10:26:44.685Z,1018.45
2018-02-19T10:27:44.676Z,1018.40
2018-02-19T10:28:44.656Z,1018.43
2018-02-19T10:29:44.682Z,1018.45
2018-02-19T10:30:44.630Z,1018.53
2018-02-19T10:31:44.616Z,1018.57
2018-02-19T10:32:44.607Z,1018.52
2018-02-19T10:33:44.594Z,1018.56
2018-02-19T10:34:44.591Z,1018.67
2018-02-19T10:35:44.564Z,1018.77
2018-02-19T10:36:44.555Z,1018.71
2018-02-19T10:37:44.545Z,1018.62
2018-02-19T10:38:44.531Z,1018.67
2018-02-19T10:39:44.522Z,1018.58
2018-02-19T10:40:44.514Z,1018.52
2018-02-19T10:41:44.499Z,1018.55
2018-02-19T10:42:44.494Z,1018.50
2018-02-19T10:43:44.491Z,1018.48
2018-02-19T10:44:44.493Z,1018.50
2018-02-19T10:45:44.461Z,1018.53
2018-02-19T10:46:44.451Z,1018.53
2018-02-19T10:47:44.446Z,1018.53
2018-02-19T10:48:44.437Z,1018.59
2018-02-19T10:49:44.434Z,1018.64
2018-02-19T10:50:44.424Z,1018.66
2018-02-19T10:51:44.418Z,1018.69
2018-02-19T10:52:44.446Z,1018.69
2018-02-19T10:53:44.397Z,1018.70
2018-02-19T10:54:44.398Z,1018.61
2018-02-19T10:55:44.382Z,1018.63
2018-02-19T10:56:44.380Z,1018.57
2018-02-19T10:57:44.365Z,1018.53
2018-02-19T10:58:44.614Z,1018.49
2018-02-19T10:59:44.356Z,1018.51
2018-02-19T11:00:44.350Z,1018.53
2018-02-19T11:01:44.341Z,1018.59
2018-02-19T11:02:44.340Z,1018.55
2018-02-19T11:03:44.585Z,1018.47
2018-02-19T11:04:44.326Z,1018.50
2018-02-19T11:05:44.324Z,1018.40
2018-02-19T11:06:44.322Z,1018.30
2018-02-19T11:07:44.312Z,1018.36
2018-02-19T11:08:44.562Z,1018.33
2018-02-19T11:09:44.311Z,1018.31
2018-02-19T11:10:44.303Z,1018.35
2018-02-19T11:11:44.295Z,1018.30
2018-02-19T11:12:44.290Z,1018.20
2018-02-19T11:13:44.289Z,1018.22
2018-02-19T11:14:44.282Z,1018.14
2018-02-19T11:15:44.348Z,1018.10
2018-02-19T11:16:44.272Z,1018.15
2018-02-19T11:17:44.265Z,1018.05
2018-02-19T11:18:44.468Z,1018.09
2018-02-19T11:19:44.317Z,1018.18
2018-02-19T11:20:44.251Z,1018.12
2018-02-19T11:21:44.249Z,1018.09
2018-02-19T11:22:44.249Z,1018.05
2018-02-19T11:23:44.387Z,1017.97
2018-02-19T11:24:44.233Z,1017.90
2018-02-19T11:25:44.276Z,1017.96
2018-02-19T11:26:44.220Z,1017.97
2018-02-19T11:27:44.216Z,1018.03
2018-02-19T11:28:44.208Z,1018.02
2018-02-19T11:29:44.205Z,1017.97
2018-02-19T11:30:44.204Z,1017.97
2018-02-19T11:31:44.192Z,1017.99
2018-02-19T11:32:44.186Z,1018.06
2018-02-19T11:33:44.188Z,1018.15
2018-02-19T11:34:44.178Z,1018.08
2018-02-19T11:35:44.166Z,1018.19
2018-02-19T11:36:44.161Z,1018.26
2018-02-19T11:37:44.155Z,1018.28
2018-02-19T11:38:44.150Z,1018.27
2018-02-19T11:39:44.145Z,1018.38
2018-02-19T11:40:44.135Z,1018.29
2018-02-19T11:41:44.127Z,1018.22
2018-02-19T11:42:44.125Z,1018.33
2018-02-19T11:43:44.118Z,1018.33
2018-02-19T11:44:44.113Z,1018.37
2018-02-19T11:45:44.113Z,1018.35
2018-02-19T11:46:44.157Z,1018.47
2018-02-19T11:47:44.096Z,1018.53
2018-02-19T11:48:44.093Z,1018.44
2018-02-19T11:49:44.090Z,1018.39
2018-02-19T11:50:44.091Z,1018.23
2018-02-19T11:51:44.082Z,1018.21
2018-02-19T11:52:44.130Z,1018.24
2018-02-19T11:53:44.075Z,1018.16
2018-02-19T11:54:44.078Z,1018.21
2018-02-19T11:55:44.070Z,1018.08
2018-02-19T11:56:44.167Z,1018.00
2018-02-19T11:57:44.066Z,1017.89
2018-02-19T11:58:44.316Z,1017.89
2018-02-19T11:59:44.064Z,1017.93
2018-02-19T12:00:44.063Z,1017.70
2018-02-19T12:01:44.068Z,1017.67
2018-02-19T12:02:44.106Z,1017.68
2018-02-19T12:03:44.305Z,1017.65
2018-02-19T12:04:44.051Z,1017.67
2018-02-19T12:05:44.053Z,1017.65
2018-02-19T12:06:44.053Z,1017.60